createdAt,value
2023-08-05T17:31:39.644Z,58.96
2023-08-05T17:34:06.488Z,59.11
2023-08-05T17:36:33.004Z,58.06
2023-08-05T17:38:59.535Z,56.76
2023-08-05T17:41:26.000Z,56.90
2023-08-05T17:43:52.510Z,58.18
2023-08-05T17:46:19.069Z,57.83
2023-08-05T17:48:45.577Z,59.26
2023-08-05T17:51:12.211Z,58.93
2023-08-05T17:53:38.721Z,61.59
2023-08-05T17:56:05.219Z,60.84
2023-08-05T17:58:31.731Z,59.30
2023-08-05T18:00:58.337Z,58.94
2023-08-05T18:03:24.881Z,59.69
2023-08-05T18:05:54.938Z,59.75
2023-08-05T18:08:25.875Z,60.88
2023-08-05T18:10:52.359Z,62.10
2023-08-05T18:13:18.861Z,61.85
2023-08-05T18:15:45.416Z,61.43
2023-08-05T18:18:11.924Z,61.46
2023-08-05T18:20:38.438Z,62.27
2023-08-05T18:23:04.982Z,62.95
2023-08-05T18:25:31.477Z,63.05
2023-08-05T18:27:58.194Z,63.55
2023-08-05T18:30:24.831Z,64.94
2023-08-05T18:32:51.368Z,65.90
2023-08-05T18:35:17.977Z,66.38
2023-08-05T18:37:44.422Z,67.32
2023-08-05T18:40:11.320Z,68.63
2023-08-05T18:42:37.837Z,67.22
2023-08-05T18:45:04.731Z,66.98
2023-08-05T18:47:31.207Z,67.35
2023-08-05T18:49:57.731Z,69.56
2023-08-05T18:52:24.249Z,72.89
2023-08-05T18:54:53.644Z,72.41
2023-08-05T18:57:20.267Z,75.96
2023-08-05T18:59:46.706Z,75.71
2023-08-05T19:02:13.157Z,75.26
2023-08-05T19:04:43.048Z,79.97
2023-08-05T19:07:09.666Z,76.82
2023-08-05T19:09:36.127Z,75.18
2023-08-05T19:12:02.722Z,75.87
2023-08-05T19:14:29.209Z,76.65
2023-08-05T19:16:55.745Z,77.95
2023-08-05T19:19:22.303Z,76.39
2023-08-05T19:21:48.774Z,76.61
2023-08-05T19:24:15.284Z,72.22
2023-08-05T19:26:41.735Z,71.04
2023-08-05T19:29:08.215Z,68.04
2023-08-05T19:31:34.761Z,67.37
2023-08-05T19:34:01.332Z,69.86
2023-08-05T19:36:27.783Z,66.49
2023-08-05T19:38:54.256Z,71.38
2023-08-05T19:41:20.762Z,68.33
2023-08-05T19:43:47.306Z,68.19
2023-08-05T19:46:14.568Z,73.58
2023-08-05T19:48:44.217Z,74.46
2023-08-05T19:51:14.296Z,73.38
2023-08-05T19:53:42.654Z,79.20
2023-08-05T19:56:09.704Z,75.30
2023-08-05T19:58:36.510Z,76.95
2023-08-05T20:01:06.667Z,71.77
2023-08-05T20:03:34.221Z,77.71
2023-08-05T20:06:00.710Z,72.21
2023-08-05T20:08:27.176Z,70.34
2023-08-05T20:10:53.653Z,70.63
2023-08-05T20:13:20.135Z,69.89
2023-08-05T20:15:46.737Z,68.84
2023-08-05T20:18:13.267Z,71.46
2023-08-05T20:20:39.802Z,73.65
2023-08-05T20:23:06.598Z,76.43
2023-08-05T20:25:35.858Z,75.43
2023-08-05T20:28:02.395Z,71.50
2023-08-05T20:30:28.949Z,77.25
2023-08-05T20:32:57.000Z,77.39
2023-08-05T20:35:24.056Z,75.35
2023-08-05T20:37:50.606Z,73.85
2023-08-05T20:40:17.179Z,75.11
2023-08-05T20:42:43.776Z,73.84
2023-08-05T20:45:10.534Z,72.94
2023-08-05T20:47:37.065Z,77.35
2023-08-05T20:50:03.712Z,75.66
2023-08-05T20:52:30.218Z,78.45
2023-08-05T20:54:57.803Z,82.36
2023-08-05T20:57:24.606Z,82.96
2023-08-05T20:59:51.112Z,85.32
2023-08-05T21:02:19.782Z,84.98
2023-08-05T21:04:47.714Z,85.85
2023-08-05T21:07:14.398Z,85.04
2023-08-05T21:09:41.225Z,83.13
2023-08-05T21:12:08.410Z,88.72
2023-08-05T21:14:34.881Z,86.40
2023-08-05T21:17:01.580Z,88.91
2023-08-05T21:19:28.092Z,88.79
2023-08-05T21:21:54.938Z,90.89
2023-08-05T21:24:21.609Z,89.77
2023-08-05T21:26:48.108Z,90.08
2023-08-05T21:29:19.838Z,87.74
2023-08-05T21:31:46.440Z,90.54
2023-08-05T21:34:12.916Z,90.66
2023-08-05T21:36:39.455Z,92.02
2023-08-05T21:39:06.918Z,90.68
2023-08-05T21:41:33.505Z,92.01
2023-08-05T21:43:59.955Z,91.74
2023-08-05T21:46:26.418Z,92.01
2023-08-05T21:48:52.934Z,93.80
2023-08-05T21:51:19.434Z,89.35
2023-08-05T21:53:45.894Z,92.14
2023-08-05T21:56:12.371Z,93.09
2023-08-05T21:58:39.044Z,90.82
2023-08-05T22:01:05.585Z,91.13
2023-08-05T22:03:32.221Z,91.95
2023-08-05T22:06:06.845Z,93.74
2023-08-05T22:08:36.608Z,92.91
2023-08-05T22:11:09.245Z,94.91
2023-08-05T22:13:35.956Z,94.60
2023-08-05T22:16:02.523Z,96.56
2023-08-05T22:18:29.097Z,95.89
2023-08-05T22:20:55.741Z,98.03
2023-08-05T22:23:22.294Z,97.63
2023-08-05T22:25:48.848Z,95.41
2023-08-05T22:28:15.402Z,96.20
2023-08-05T22:30:43.046Z,95.60
2023-08-05T22:33:09.621Z,95.11
2023-08-05T22:35:36.145Z,98.40
2023-08-05T22:38:02.607Z,96.27
2023-08-05T22:40:29.253Z,94.79
2023-08-05T22:42:55.777Z,93.13
2023-08-05T22:45:23.327Z,92.47
2023-08-05T22:47:49.861Z,94.31
2023-08-05T22:50:16.700Z,95.22
2023-08-05T22:52:43.259Z,96.58
2023-08-05T22:55:09.825Z,97.78
2023-08-05T22:57:36.344Z,95.82
2023-08-05T23:00:02.913Z,95.84
2023-08-05T23:02:29.467Z,97.09
2023-08-05T23:04:55.980Z,93.64
2023-08-05T23:07:22.662Z,91.94
2023-08-05T23:09:51.754Z,94.67
2023-08-05T23:12:18.291Z,93.23
2023-08-05T23:14:45.085Z,93.41
2023-08-05T23:17:11.579Z,92.30
2023-08-05T23:19:38.734Z,89.81
2023-08-05T23:22:05.521Z,93.24
2023-08-05T23:24:32.062Z,85.81
2023-08-05T23:26:58.550Z,84.44
2023-08-05T23:29:25.093Z,80.32
2023-08-05T23:31:51.733Z,81.96
2023-08-05T23:34:18.400Z,85.22
2023-08-05T23:36:44.808Z,82.70
2023-08-05T23:39:11.264Z,81.62
2023-08-05T23:41:37.863Z,87.63
2023-08-05T23:44:04.548Z,85.01
2023-08-05T23:46:31.033Z,79.99
2023-08-05T23:48:57.513Z,81.60
2023-08-05T23:51:24.028Z,86.61
2023-08-05T23:53:50.981Z,82.55
2023-08-05T23:56:17.459Z,87.45
2023-08-05T23:58:44.105Z,87.89
